sensor_id;sensor_type;location;lat;lon;timestamp;pressure;altitude;pressure_sealevel;temperature;humidity
31011;BME280;26395;53.412;19.598;2023-02-23T00:03:09;100856.41;;;2.42;65.43
31011;BME280;26395;53.412;19.598;2023-02-23T00:18:13;100849.65;;;2.38;65.67
31011;BME280;26395;53.412;19.598;2023-02-23T00:33:17;100846.52;;;2.39;65.88
31011;BME280;26395;53.412;19.598;2023-02-23T00:48:21;100836.30;;;2.40;65.35
31011;BME280;26395;53.412;19.598;2023-02-23T01:03:25;100828.46;;;2.26;65.21
31011;BME280;26395;53.412;19.598;2023-02-23T01:18:28;100819.88;;;2.21;65.44
31011;BME280;26395;53.412;19.598;2023-02-23T01:33:31;100809.63;;;2.11;65.10
31011;BME280;26395;53.412;19.598;2023-02-23T01:48:38;100808.61;;;2.02;64.98
31011;BME280;26395;53.412;19.598;2023-02-23T02:04:02;100797.66;;;1.92;64.99
31011;BME280;26395;53.412;19.598;2023-02-23T02:50:46;100761.52;;;1.62;65.60
31011;BME280;26395;53.412;19.598;2023-02-23T03:05:53;100767.65;;;1.56;66.37
31011;BME280;26395;53.412;19.598;2023-02-23T03:21:24;100770.60;;;1.56;66.40
31011;BME280;26395;53.412;19.598;2023-02-23T03:36:52;100770.62;;;1.51;67.40
31011;BME280;26395;53.412;19.598;2023-02-23T03:52:20;100754.05;;;1.51;67.62
31011;BME280;26395;53.412;19.598;2023-02-23T04:20:41;100743.88;;;1.47;67.98
31011;BME280;26395;53.412;19.598;2023-02-23T04:35:47;100739.51;;;1.41;68.15
31011;BME280;26395;53.412;19.598;2023-02-23T04:50:52;100734.45;;;1.42;67.91
31011;BME280;26395;53.412;19.598;2023-02-23T05:05:55;100721.13;;;1.39;68.30
31011;BME280;26395;53.412;19.598;2023-02-23T05:21:06;100711.67;;;1.39;68.08
31011;BME280;26395;53.412;19.598;2023-02-23T05:36:12;100703.89;;;1.31;68.16
31011;BME280;26395;53.412;19.598;2023-02-23T05:51:17;100701.80;;;1.23;68.09
31011;BME280;26395;53.412;19.598;2023-02-23T06:06:21;100696.23;;;1.29;67.96
31011;BME280;26395;53.412;19.598;2023-02-23T06:21:26;100694.19;;;1.32;67.70
31011;BME280;26395;53.412;19.598;2023-02-23T06:36:29;100683.98;;;1.45;67.10
31011;BME280;26395;53.412;19.598;2023-02-23T06:51:32;100680.33;;;1.65;66.85
31011;BME280;26395;53.412;19.598;2023-02-23T07:06:36;100661.69;;;1.89;66.75
31011;BME280;26395;53.412;19.598;2023-02-23T07:21:40;100653.73;;;2.08;67.02
31011;BME280;26395;53.412;19.598;2023-02-23T07:36:43;100640.80;;;2.48;66.98
31011;BME280;26395;53.412;19.598;2023-02-23T07:51:47;100632.28;;;2.88;66.72
31011;BME280;26395;53.412;19.598;2023-02-23T08:06:50;100621.81;;;3.27;66.81
31011;BME280;26395;53.412;19.598;2023-02-23T08:21:53;100612.41;;;3.84;66.25
31011;BME280;26395;53.412;19.598;2023-02-23T08:36:58;100594.70;;;3.89;65.70
31011;BME280;26395;53.412;19.598;2023-02-23T08:52:02;100587.95;;;3.95;65.59
31011;BME280;26395;53.412;19.598;2023-02-23T09:07:08;100565.91;;;4.15;65.98
31011;BME280;26395;53.412;19.598;2023-02-23T09:22:11;100558.62;;;4.52;65.52
31011;BME280;26395;53.412;19.598;2023-02-23T09:37:15;100545.20;;;4.74;64.14
31011;BME280;26395;53.412;19.598;2023-02-23T09:52:23;100520.95;;;5.08;64.03
31011;BME280;26395;53.412;19.598;2023-02-23T10:22:46;100495.64;;;5.77;62.13
31011;BME280;26395;53.412;19.598;2023-02-23T10:37:51;100488.19;;;6.33;60.75
31011;BME280;26395;53.412;19.598;2023-02-23T10:53:03;100461.84;;;7.38;59.76
31011;BME280;26395;53.412;19.598;2023-02-23T11:23:32;100395.78;;;8.36;57.50
31011;BME280;26395;53.412;19.598;2023-02-23T11:38:37;100381.34;;;8.85;56.96
31011;BME280;26395;53.412;19.598;2023-02-23T11:53:44;100375.46;;;9.65;56.23
31011;BME280;26395;53.412;19.598;2023-02-23T12:08:51;100357.05;;;10.35;56.28
31011;BME280;26395;53.412;19.598;2023-02-23T12:39:42;100314.45;;;10.10;56.01
31011;BME280;26395;53.412;19.598;2023-02-23T12:54:48;100287.30;;;10.83;55.88
31011;BME280;26395;53.412;19.598;2023-02-23T13:55:59;100195.25;;;14.01;52.59
31011;BME280;26395;53.412;19.598;2023-02-23T14:11:06;100187.11;;;13.24;52.72
31011;BME280;26395;53.412;19.598;2023-02-23T14:26:17;100165.68;;;12.33;53.40
31011;BME280;26395;53.412;19.598;2023-02-23T14:41:59;100141.66;;;10.48;55.61
31011;BME280;26395;53.412;19.598;2023-02-23T14:57:23;100122.50;;;9.91;57.63
31011;BME280;26395;53.412;19.598;2023-02-23T15:12:29;100091.98;;;9.42;59.15
31011;BME280;26395;53.412;19.598;2023-02-23T15:27:39;100082.77;;;8.73;60.72
31011;BME280;26395;53.412;19.598;2023-02-23T15:42:48;100054.27;;;8.23;62.28
31011;BME280;26395;53.412;19.598;2023-02-23T15:58:09;100036.73;;;7.87;63.58
31011;BME280;26395;53.412;19.598;2023-02-23T16:13:20;100027.62;;;7.62;64.22
31011;BME280;26395;53.412;19.598;2023-02-23T16:28:28;100024.08;;;7.36;64.87
31011;BME280;26395;53.412;19.598;2023-02-23T16:43:33;100008.20;;;7.14;66.86
31011;BME280;26395;53.412;19.598;2023-02-23T16:58:41;99991.64;;;7.06;67.83
31011;BME280;26395;53.412;19.598;2023-02-23T17:13:45;99973.80;;;7.05;68.32
31011;BME280;26395;53.412;19.598;2023-02-23T17:28:49;99950.80;;;7.03;68.97
31011;BME280;26395;53.412;19.598;2023-02-23T17:43:53;99931.83;;;7.01;69.21
31011;BME280;26395;53.412;19.598;2023-02-23T17:58:57;99907.05;;;7.07;69.26
31011;BME280;26395;53.412;19.598;2023-02-23T18:14:01;99874.92;;;7.06;70.02
31011;BME280;26395;53.412;19.598;2023-02-23T18:29:06;99865.77;;;7.03;70.98
31011;BME280;26395;53.412;19.598;2023-02-23T18:44:12;99851.70;;;6.92;73.25
31011;BME280;26395;53.412;19.598;2023-02-23T18:59:19;99827.30;;;6.93;73.35
31011;BME280;26395;53.412;19.598;2023-02-23T19:14:22;99809.33;;;6.98;73.78
31011;BME280;26395;53.412;19.598;2023-02-23T19:29:46;99790.96;;;7.02;74.33
31011;BME280;26395;53.412;19.598;2023-02-23T19:44:51;99771.38;;;7.12;74.19
31011;BME280;26395;53.412;19.598;2023-02-23T19:59:56;99752.64;;;7.07;74.68
31011;BME280;26395;53.412;19.598;2023-02-23T20:15:02;99734.89;;;7.01;75.04
31011;BME280;26395;53.412;19.598;2023-02-23T20:30:10;99714.02;;;6.96;75.46
31011;BME280;26395;53.412;19.598;2023-02-23T20:45:19;99700.23;;;7.01;75.93
31011;BME280;26395;53.412;19.598;2023-02-23T21:00:25;99674.27;;;7.14;75.47
31011;BME280;26395;53.412;19.598;2023-02-23T21:15:33;99648.21;;;7.23;75.58
31011;BME280;26395;53.412;19.598;2023-02-23T21:30:37;99635.02;;;7.18;76.26
31011;BME280;26395;53.412;19.598;2023-02-23T21:45:41;99617.77;;;7.27;76.54
31011;BME280;26395;53.412;19.598;2023-02-23T22:00:48;99600.42;;;7.22;78.39
31011;BME280;26395;53.412;19.598;2023-02-23T22:15:57;99583.92;;;7.16;81.64
31011;BME280;26395;53.412;19.598;2023-02-23T22:31:01;99565.00;;;7.17;84.24
31011;BME280;26395;53.412;19.598;2023-02-23T22:46:08;99544.48;;;7.11;88.86
31011;BME280;26395;53.412;19.598;2023-02-23T23:01:11;99520.23;;;7.14;91.38
31011;BME280;26395;53.412;19.598;2023-02-23T23:16:18;99500.25;;;7.22;91.43
31011;BME280;26395;53.412;19.598;2023-02-23T23:31:33;99480.55;;;7.25;93.62
31011;BME280;26395;53.412;19.598;2023-02-23T23:46:40;99456.02;;;7.29;95.01
